createdAt,value
2022-08-12T04:04:10.729Z,14.95
2022-08-12T04:09:16.130Z,15.06
2022-08-12T04:14:22.061Z,14.96
2022-08-12T04:19:26.306Z,15.03
2022-08-12T04:24:31.941Z,15.02
2022-08-12T04:30:31.371Z,15.09
2022-08-12T04:34:57.020Z,15.31
2022-08-12T04:40:00.072Z,15.41
2022-08-12T04:45:02.705Z,15.51
2022-08-12T04:50:34.059Z,15.69
2022-08-12T04:55:34.658Z,15.95
2022-08-12T05:00:38.242Z,16.16
2022-08-12T05:05:42.827Z,16.32
2022-08-12T05:10:46.592Z,16.47
2022-08-12T05:16:04.640Z,16.77
2022-08-12T05:21:09.398Z,17.00
2022-08-12T05:26:11.894Z,17.23
2022-08-12T05:31:14.166Z,17.39
2022-08-12T05:36:36.577Z,17.65
2022-08-12T05:41:39.593Z,17.93
2022-08-12T05:46:42.087Z,18.18
2022-08-12T05:51:44.761Z,18.40
2022-08-12T05:56:48.060Z,18.61
2022-08-12T06:02:10.006Z,18.81
2022-08-12T06:07:59.229Z,19.02
2022-08-12T06:12:36.326Z,19.29
2022-08-12T06:17:38.606Z,19.52
2022-08-12T06:22:45.219Z,19.74
2022-08-12T06:28:07.497Z,20.00
2022-08-12T06:33:20.850Z,20.30
2022-08-12T06:38:28.165Z,20.60
2022-08-12T06:43:31.039Z,20.91
2022-08-12T06:48:58.863Z,21.29
2022-08-12T06:54:02.135Z,21.68
2022-08-12T06:59:05.854Z,21.97
2022-08-12T07:04:33.664Z,22.36
2022-08-12T07:10:04.088Z,22.73
2022-08-12T07:14:52.707Z,23.16
2022-08-12T07:19:59.239Z,23.60
2022-08-12T07:25:22.851Z,24.00
2022-08-12T07:30:25.293Z,24.49
2022-08-12T07:35:32.654Z,25.02
2022-08-12T07:40:34.963Z,25.63
2022-08-12T07:45:37.279Z,26.56
2022-08-12T07:50:39.632Z,27.97
2022-08-12T07:55:42.134Z,29.62
2022-08-12T08:00:44.582Z,31.19
2022-08-12T08:05:46.864Z,32.48
2022-08-12T08:10:51.761Z,33.99
2022-08-12T08:16:04.150Z,37.05
2022-08-12T08:21:06.811Z,45.97
2022-08-12T08:26:10.712Z,55.47
2022-08-12T08:31:14.392Z,63.09
2022-08-12T08:36:23.881Z,65.86
2022-08-12T08:42:15.825Z,64.60
2022-08-12T08:47:10.820Z,49.80
2022-08-12T08:52:13.062Z,42.64
2022-08-12T08:57:43.385Z,40.43
2022-08-12T09:02:49.313Z,39.91
2022-08-12T09:14:10.770Z,39.69
2022-08-12T09:18:52.473Z,40.11
2022-08-12T09:24:06.162Z,41.20
2022-08-12T09:29:12.096Z,41.73
2022-08-12T09:34:29.553Z,42.71
2022-08-12T09:40:01.469Z,42.62
2022-08-12T09:45:17.773Z,42.76
2022-08-12T09:50:23.199Z,43.35
2022-08-12T09:56:06.954Z,44.47
2022-08-12T10:00:52.166Z,45.31
2022-08-12T10:06:19.404Z,46.00
2022-08-12T10:12:10.147Z,45.39
2022-08-12T10:16:59.142Z,46.07
2022-08-12T10:22:01.608Z,46.51
2022-08-12T10:27:23.172Z,46.42
2022-08-12T10:32:44.157Z,46.10
2022-08-12T10:38:38.347Z,45.18
2022-08-12T10:43:29.005Z,44.32
2022-08-12T10:49:05.585Z,44.61
2022-08-12T10:54:16.959Z,44.07
2022-08-12T11:00:29.090Z,44.13
2022-08-12T11:04:49.719Z,43.54
2022-08-12T11:10:00.478Z,42.81
2022-08-12T11:15:19.510Z,43.14
2022-08-12T11:20:30.841Z,43.24
2022-08-12T11:25:42.419Z,40.78
2022-08-12T11:30:55.862Z,40.28
2022-08-12T11:36:14.622Z,39.55
2022-08-12T11:41:31.362Z,40.64
2022-08-12T11:46:37.059Z,41.22
2022-08-12T11:51:39.907Z,38.08
2022-08-12T11:56:44.818Z,40.24
2022-08-12T12:02:05.081Z,39.71
2022-08-12T12:07:11.226Z,40.83
2022-08-12T12:12:14.776Z,40.88
2022-08-12T12:17:17.778Z,41.79
2022-08-12T12:22:23.628Z,42.66
2022-08-12T12:27:44.388Z,41.68
2022-08-12T12:32:53.354Z,42.15
2022-08-12T12:38:05.540Z,41.12
2022-08-12T12:43:14.999Z,40.54
2022-08-12T12:48:19.292Z,38.95
2022-08-12T12:54:05.916Z,37.91
2022-08-12T12:58:51.566Z,37.34
2022-08-12T13:03:56.504Z,35.10
2022-08-12T13:09:04.597Z,36.22
2022-08-12T13:14:12.693Z,37.99
2022-08-12T13:19:16.215Z,38.46
2022-08-12T13:24:25.711Z,37.76
2022-08-12T13:29:34.061Z,35.87
2022-08-12T13:34:37.263Z,35.00
2022-08-12T13:39:39.693Z,34.57
2022-08-12T13:44:43.084Z,33.99
2022-08-12T13:49:55.234Z,33.34
2022-08-12T13:54:59.306Z,32.86
2022-08-12T14:00:02.284Z,32.79
2022-08-12T14:05:38.108Z,32.92
2022-08-12T14:10:50.695Z,33.08
2022-08-12T14:15:55.654Z,32.92
2022-08-12T14:21:02.260Z,32.71
2022-08-12T14:26:11.853Z,32.35
2022-08-12T14:31:18.295Z,32.42
2022-08-12T14:36:25.455Z,32.37
2022-08-12T14:41:36.522Z,33.31
2022-08-12T14:46:39.953Z,33.98
2022-08-12T14:53:13.534Z,33.29
2022-08-12T14:57:20.333Z,32.52
2022-08-12T15:02:28.493Z,31.78
2022-08-12T15:07:33.833Z,31.09
2022-08-12T15:12:51.645Z,31.47
2022-08-12T15:18:02.466Z,31.66
2022-08-12T15:23:18.047Z,31.62
2022-08-12T15:28:25.623Z,31.56
2022-08-12T15:33:45.515Z,31.01
2022-08-12T15:38:50.137Z,31.55
2022-08-12T15:44:20.126Z,31.83
2022-08-12T15:49:19.166Z,32.05
2022-08-12T15:54:33.428Z,32.15
2022-08-12T16:00:04.562Z,32.22
2022-08-12T16:05:01.274Z,32.47
2022-08-12T16:10:08.546Z,32.17
2022-08-12T16:15:13.680Z,31.78
2022-08-12T16:20:21.827Z,31.65
2022-08-12T16:26:02.656Z,31.43
2022-08-12T16:30:56.201Z,31.21
2022-08-12T16:35:58.487Z,31.04
2022-08-12T16:41:02.300Z,31.13
2022-08-12T16:46:32.264Z,31.06
2022-08-12T16:51:29.919Z,30.93
2022-08-12T16:56:39.831Z,30.88
2022-08-12T17:01:56.699Z,30.67
2022-08-12T17:07:01.445Z,30.51
2022-08-12T17:12:04.841Z,30.42
2022-08-12T17:17:18.280Z,30.26
2022-08-12T17:22:30.355Z,30.02
2022-08-12T17:27:34.152Z,29.79
2022-08-12T17:32:39.659Z,29.62
2022-08-12T17:37:43.137Z,29.33
2022-08-12T17:42:47.683Z,29.09
2022-08-12T17:48:01.507Z,28.82
2022-08-12T17:53:10.808Z,28.63
2022-08-12T17:58:13.983Z,28.39
2022-08-12T18:04:06.977Z,28.20
2022-08-12T18:08:54.770Z,27.98
2022-08-12T18:13:57.701Z,27.76
2022-08-12T18:19:02.254Z,27.61
2022-08-12T18:24:05.032Z,27.42
2022-08-12T18:29:27.171Z,27.21
2022-08-12T18:34:45.295Z,27.06
2022-08-12T18:40:15.225Z,26.89
2022-08-12T18:45:19.785Z,26.71
2022-08-12T18:50:24.578Z,26.49
2022-08-12T18:55:27.094Z,26.17
2022-08-12T19:00:40.519Z,25.87
2022-08-12T19:05:54.447Z,25.65
2022-08-12T19:11:16.324Z,25.46
2022-08-12T19:16:21.442Z,25.22
2022-08-12T19:21:25.253Z,24.93
2022-08-12T19:26:28.425Z,24.80
2022-08-12T19:31:44.871Z,24.56
2022-08-12T19:37:02.370Z,24.39
2022-08-12T19:42:06.727Z,24.42
2022-08-12T19:47:11.952Z,24.16
2022-08-12T19:52:21.758Z,24.16
2022-08-12T19:57:25.980Z,24.17
2022-08-12T20:02:33.200Z,24.11
2022-08-12T20:07:42.944Z,24.11
2022-08-12T20:13:18.170Z,24.08
2022-08-12T20:18:53.691Z,24.08
2022-08-12T20:24:00.213Z,23.95
2022-08-12T20:29:07.487Z,23.90
2022-08-12T20:34:28.622Z,23.86
2022-08-12T20:39:51.805Z,23.79
2022-08-12T20:44:54.166Z,23.71
2022-08-12T20:50:01.497Z,23.59
2022-08-12T20:55:15.340Z,23.53
2022-08-12T21:00:28.011Z,23.47
2022-08-12T21:06:12.116Z,23.40
2022-08-12T21:11:11.949Z,23.34
2022-08-12T21:16:14.289Z,23.34
2022-08-12T21:21:23.701Z,23.21
2022-08-12T21:26:28.203Z,23.07
2022-08-12T21:32:36.602Z,22.99
2022-08-12T21:36:53.581Z,22.96
2022-08-12T21:41:59.144Z,23.03
